KAIO

Details ICAO KAIO
Name ATLANTIC MUNI
Region United States
Timezone America/Chicago (UTC-6.0)
Plans Departing 4
Arriving 1
Stats Elevation 1,182 ft / 360 m (AMSL)
Location 41.407629° -95.047714°
Runways 2
Magnetic Variation 1.890° E
Sunrise 2017-12-10 13:37:06 UTC / 2017-12-10 07:37:06 Local
Sunset 2017-12-10 22:52:03 UTC / 2017-12-10 16:52:03 Local
Advertisement - Login to hide

Runways

ID Width Length Bearing (true) Bearing (mag) Surface Threshold Offset Overrun Length
12 75 ft / 23 m 3,907 ft / 1,191 m 123.13° 121.24° Asphalt 855 ft / 261 m 500 ft / 152 m
17 185 ft / 56 m 1,903 ft / 580 m 179.56° 177.67° Grass 0 ft / 0 m 0 ft / 0 m
30 75 ft / 23 m 3,907 ft / 1,191 m 303.14° 301.25° Asphalt 0 ft / 0 m 0 ft / 0 m
35 185 ft / 56 m 1,903 ft / 580 m 359.56° 357.67° Grass 0 ft / 0 m 0 ft / 0 m

Map

Weather


0- 5 10 15 20 25 30 35+ Temperature / ° C

Clouds and Precipitation
Forecast for 2017-12-11 00:00 UTC. Updated an hour ago

Ground ~20,000 ft ~40,000 ft Winds

METAR

KAIO 110015Z AUTO 00000KT 10SM CLR 00/M05 A3010 RMK AO2

TAF

Not found

Frequencies

Recorded 127.82 MHz AWOS 3
Unicom 122.70 MHz CTAF/UNICOM
Warning: Do not use this data for real-world aviation or navigation. No guarantee of current accuracy is given.